Time;durP1;ratioP1;P1;durP2;ratioP2;P2;SDS_P1;SDS_P2;PMS_P1;PMS_P2;Temp;Humidity;BMP_temperature;BMP_pressure;BME280_temperature;BME280_humidity;BME280_pressure;Samples;Min_cycle;Max_cycle;Signal;HPM_P1;HPM_P2
2022/11/13 00:02:45;;;;;;;41.97;10.03;;;6.10;99.90;;;9.32;58.36;98605.09;4910199;29;20047;-57
2022/11/13 00:05:32;;;;;;;16.73;9.50;;;6.10;99.90;;;9.31;58.24;98603.44;4912336;29;20385;-55
2022/11/13 00:08:19;;;;;;;18.63;9.70;;;6.10;99.90;;;9.27;58.56;98602.03;4909902;29;20055;-56
2022/11/13 00:11:24;;;;;;;12.73;9.50;;;6.00;99.90;;;9.25;58.19;98602.13;4914526;29;20051;-57
2022/11/13 00:14:10;;;;;;;14.77;11.10;;;6.00;99.90;;;9.29;58.00;98591.25;4911162;29;20047;-55
2022/11/13 00:16:57;;;;;;;17.07;12.37;;;6.00;99.90;;;9.27;58.06;98602.03;4909828;29;20047;-55
2022/11/13 00:19:44;;;;;;;12.30;9.40;;;6.00;99.90;;;9.27;57.83;98600.19;4913427;29;20046;-55
2022/11/13 00:22:30;;;;;;;9.57;8.57;;;6.00;99.90;;;9.26;57.54;98587.03;4912059;29;20051;-57
2022/11/13 00:25:17;;;;;;;16.40;9.33;;;5.90;99.90;;;9.21;57.33;98582.13;4909181;29;20062;-57
2022/11/13 00:28:04;;;;;;;21.53;10.63;;;5.80;99.90;;;9.15;57.47;98584.44;4913625;29;20262;-57
2022/11/13 00:30:56;;;;;;;16.00;10.10;;;5.80;99.90;;;9.07;57.40;98580.63;4911590;29;20051;-57
2022/11/13 00:33:43;;;;;;;18.17;12.27;;;5.70;99.90;;;9.04;57.35;98582.69;4908277;29;20055;-55
2022/11/13 00:36:50;;;;;;;30.60;11.47;;;5.60;99.90;;;8.98;57.04;98575.25;4911839;29;20066;-56
2022/11/13 00:39:36;;;;;;;11.87;9.03;;;5.50;99.90;;;8.93;57.09;98578.28;4910020;29;20050;-56
2022/11/13 00:42:23;;;;;;;16.53;10.20;;;5.50;99.90;;;8.87;57.04;98574.31;4912962;29;20587;-55
2022/11/13 00:45:10;;;;;;;14.20;9.50;;;5.40;99.90;;;8.83;57.21;98572.03;4910357;29;20062;-55
2022/11/13 00:47:56;;;;;;;13.27;10.20;;;5.40;99.90;;;8.82;57.26;98557.06;4910301;29;20380;-57
2022/11/13 00:50:44;;;;;;;15.93;9.73;;;5.40;99.90;;;8.78;57.10;98553.84;4913617;29;20054;-57
2022/11/13 00:53:31;;;;;;;11.73;9.20;;;5.40;99.90;;;8.75;56.94;98550.59;4910668;29;20054;-53
2022/11/13 00:56:17;;;;;;;17.27;10.27;;;5.40;99.90;;;8.69;57.11;98549.31;4909767;29;20106;-55
2022/11/13 00:59:04;;;;;;;15.17;8.80;;;5.30;99.90;;;8.65;56.85;98548.72;4912864;29;20055;-57
2022/11/13 01:01:50;;;;;;;39.40;9.17;;;5.30;99.90;;;8.59;56.70;98545.72;4911616;29;20046;-55
2022/11/13 01:04:37;;;;;;;20.37;9.43;;;5.20;99.90;;;8.53;56.47;98546.22;4908550;29;20154;-55
2022/11/13 01:07:24;;;;;;;19.00;9.40;;;5.10;99.90;;;8.44;56.52;98543.34;4911356;29;20372;-54
2022/11/13 01:10:12;;;;;;;24.40;10.40;;;4.90;99.90;;;8.35;56.70;98548.53;4910521;29;20066;-56
2022/11/13 01:12:58;;;;;;;19.00;13.53;;;4.90;99.90;;;8.24;56.37;98544.97;4913958;29;20051;-56
2022/11/13 01:15:45;;;;;;;18.40;12.37;;;4.80;99.90;;;8.22;56.69;98548.69;4911674;29;20055;-57
2022/11/13 01:18:32;;;;;;;13.90;11.23;;;4.70;99.90;;;8.18;57.02;98544.59;4910317;29;20050;-55
2022/11/13 01:21:23;;;;;;;10.03;8.93;;;4.70;99.90;;;8.17;57.34;98533.16;4908163;29;20058;-54
2022/11/13 01:24:11;;;;;;;12.67;8.90;;;4.80;99.90;;;8.20;56.82;98530.25;4911238;29;20393;-54
2022/11/13 01:26:57;;;;;;;14.20;10.20;;;4.90;99.90;;;8.24;57.07;98525.56;4908601;29;20050;-54
2022/11/13 01:29:44;;;;;;;13.47;9.60;;;4.80;99.90;;;8.23;56.79;98524.69;4913377;29;20054;-57
2022/11/13 01:32:31;;;;;;;12.37;9.07;;;4.80;99.90;;;8.21;56.56;98521.31;4911289;29;20050;-55
2022/11/13 01:35:17;;;;;;;11.37;7.70;;;4.80;99.90;;;8.17;56.63;98519.06;4909339;29;20050;-55
2022/11/13 01:38:04;;;;;;;9.57;8.50;;;4.70;99.90;;;8.14;56.45;98517.47;4911925;29;20246;-57
2022/11/13 01:40:51;;;;;;;11.03;8.70;;;4.70;99.90;;;8.13;56.58;98515.81;4910571;29;20047;-57
2022/11/13 01:43:38;;;;;;;16.97;9.40;;;4.70;99.90;;;8.09;56.39;98517.03;4909143;29;20063;-53
2022/11/13 01:46:43;;;;;;;10.37;8.50;;;4.70;99.90;;;8.04;56.60;98509.41;4925260;29;20051;-56
2022/11/13 01:49:41;;;;;;;10.65;8.80;;;4.60;99.90;;;8.01;56.56;98508.84;4910592;29;20059;-56
2022/11/13 01:52:34;;;;;;;11.80;8.33;;;4.50;99.90;;;8.00;56.59;98499.19;4907735;29;20055;-57
2022/11/13 01:55:21;;;;;;;11.40;8.77;;;4.50;99.90;;;7.98;56.46;98499.31;4908784;29;20365;-53
2022/11/13 01:58:09;;;;;;;30.27;11.17;;;4.60;99.90;;;7.99;56.75;98494.88;4908930;29;20043;-54
2022/11/13 02:00:56;;;;;;;83.10;12.33;;;4.60;99.90;;;7.95;56.70;98488.97;4911986;29;20063;-56
2022/11/13 02:03:42;;;;;;;23.23;9.73;;;4.50;99.90;;;7.89;56.50;98490.31;4910803;29;20046;-56
2022/11/13 02:07:15;;;;;;;34.17;10.70;;;4.50;99.90;;;7.84;56.48;98489.00;4909075;29;20117;-56
2022/11/13 02:10:02;;;;;;;20.50;9.57;;;4.50;99.90;;;7.85;56.83;98485.34;4909777;29;20230;-56
2022/11/13 02:12:50;;;;;;;13.47;8.87;;;4.40;99.90;;;7.82;56.27;98483.81;4908323;29;20051;-56
2022/11/13 02:15:38;;;;;;;16.23;9.83;;;4.40;99.90;;;7.80;56.31;98476.94;4911555;29;20050;-56
2022/11/13 02:18:28;;;;;;;12.93;8.70;;;4.40;99.90;;;7.77;56.17;98478.00;4908695;29;20055;-55
2022/11/13 02:21:54;;;;;;;11.93;9.20;;;4.30;99.90;;;7.69;56.40;98469.84;4907345;29;20234;-55
2022/11/13 02:24:45;;;;;;;11.23;8.07;;;4.30;99.90;;;7.73;56.20;98462.50;4909567;29;20405;-52
2022/11/13 02:27:48;;;;;;;11.53;8.17;;;4.30;99.90;;;7.69;56.54;98465.38;4906608;29;20059;-54
2022/11/13 02:30:35;;;;;;;11.13;8.60;;;4.30;99.90;;;7.66;56.36;98454.19;4909672;29;20381;-56
2022/11/13 02:33:27;;;;;;;12.93;8.57;;;4.30;99.90;;;7.61;56.08;98449.25;4907821;29;20384;-56
2022/11/13 02:36:15;;;;;;;10.43;7.80;;;4.30;99.90;;;7.54;55.65;98450.72;4911381;29;20054;-55
2022/11/13 02:39:09;;;;;;;10.73;8.10;;;4.20;99.90;;;7.53;56.61;98450.84;4910148;29;20058;-56
2022/11/13 02:41:55;;;;;;;12.95;7.65;;;4.20;99.90;;;7.53;55.76;98451.69;4907676;29;20211;-53
2022/11/13 02:44:42;;;;;;;10.00;7.90;;;4.20;99.90;;;7.51;56.17;98448.31;4911246;29;20055;-55
2022/11/13 02:47:29;;;;;;;8.93;7.20;;;4.10;99.90;;;7.49;56.43;98450.25;4909055;29;20384;-52
2022/11/13 02:50:17;;;;;;;10.40;8.20;;;4.10;99.90;;;7.47;55.65;98457.47;4907331;29;20052;-53
2022/11/13 02:53:04;;;;;;;9.43;7.23;;;4.10;99.90;;;7.42;55.59;98452.53;4911760;29;20110;-54
2022/11/13 02:55:50;;;;;;;9.07;7.23;;;4.00;99.90;;;7.40;56.35;98450.97;4908414;29;20357;-55
2022/11/13 02:58:37;;;;;;;11.43;8.13;;;4.00;99.90;;;7.34;55.71;98449.63;4907675;29;20043;-55
2022/11/13 03:01:24;;;;;;;8.73;7.47;;;3.80;99.90;;;7.24;55.50;98438.94;4911472;29;20246;-52
2022/11/13 03:04:10;;;;;;;13.97;7.40;;;3.70;99.90;;;7.07;55.60;98447.34;4908695;29;20051;-53
2022/11/13 03:06:57;;;;;;;79.63;11.63;;;3.50;99.90;;;7.05;56.75;98451.94;4906348;29;20063;-55
2022/11/13 03:09:44;;;;;;;11.20;7.93;;;3.50;99.90;;;7.02;56.52;98442.44;4910420;29;20074;-57
2022/11/13 03:12:32;;;;;;;12.83;7.53;;;3.50;99.90;;;7.04;55.94;98437.00;4920636;29;20067;-55
2022/11/13 03:15:19;;;;;;;17.53;9.57;;;3.50;99.90;;;6.95;56.04;98429.78;4906263;29;20051;-54
2022/11/13 03:18:07;;;;;;;23.03;8.20;;;3.40;99.90;;;6.89;56.75;98431.09;4910224;29;20067;-56
2022/11/13 03:20:54;;;;;;;13.70;7.00;;;3.30;99.90;;;6.84;56.07;98431.47;4907338;29;20349;-56
2022/11/13 03:23:45;;;;;;;19.80;8.87;;;3.30;99.90;;;6.69;56.29;98435.28;4911490;29;20047;-55
2022/11/13 03:26:32;;;;;;;14.57;8.00;;;3.10;99.90;;;6.68;56.26;98436.22;4908904;29;20094;-56
2022/11/13 03:29:19;;;;;;;13.87;7.63;;;3.10;99.90;;;6.66;56.40;98443.44;4907785;29;20355;-54
2022/11/13 03:32:06;;;;;;;32.57;7.53;;;3.10;99.90;;;6.68;56.44;98447.66;4911523;29;20063;-55
2022/11/13 03:34:52;;;;;;;25.90;7.80;;;3.20;99.90;;;6.69;56.79;98437.94;4909224;29;20250;-55
2022/11/13 03:37:39;;;;;;;13.90;8.20;;;3.20;99.90;;;6.70;56.93;98431.66;4908130;29;20047;-55
2022/11/13 03:40:25;;;;;;;11.33;7.60;;;3.20;99.90;;;6.71;57.20;98433.38;4906978;29;20357;-53
2022/11/13 03:43:13;;;;;;;11.07;7.40;;;3.30;99.90;;;6.71;57.12;98433.38;4909020;29;20050;-55
2022/11/13 03:45:59;;;;;;;13.00;8.33;;;3.30;99.90;;;6.69;56.70;98435.28;4907398;29;20063;-55
2022/11/13 03:48:46;;;;;;;8.67;6.70;;;3.20;99.90;;;6.67;56.50;98430.09;4911346;29;20051;-53
2022/11/13 03:51:33;;;;;;;13.30;7.37;;;3.30;99.90;;;6.64;57.12;98425.03;4909501;29;20051;-54
2022/11/13 03:54:19;;;;;;;10.37;7.00;;;3.20;99.90;;;6.61;57.05;98427.94;4907596;29;20051;-56
2022/11/13 03:57:06;;;;;;;10.47;8.73;;;3.10;99.90;;;6.63;56.55;98426.00;4911068;29;20055;-51
2022/11/13 03:59:53;;;;;;;21.00;8.90;;;3.20;99.90;;;6.66;57.16;98431.06;4909507;29;20058;-52
2022/11/13 04:02:40;;;;;;;20.43;9.37;;;3.20;99.90;;;6.66;56.82;98424.94;4920042;29;20063;-57
2022/11/13 04:05:26;;;;;;;13.43;8.33;;;3.30;99.90;;;6.63;57.15;98426.00;4906457;29;20043;-56
2022/11/13 04:08:13;;;;;;;11.27;7.93;;;3.20;99.90;;;6.62;56.40;98420.84;4907753;29;20050;-53
2022/11/13 04:11:11;;;;;;;9.00;6.67;;;3.10;99.90;;;6.57;56.20;98415.03;4906351;29;20055;-56
2022/11/13 04:13:58;;;;;;;9.63;7.07;;;3.10;99.90;;;6.55;55.96;98411.66;4934611;29;20384;-52
2022/11/13 04:16:45;;;;;;;7.53;6.70;;;3.10;99.90;;;6.52;56.78;98409.28;4910708;29;20055;-57
2022/11/13 04:19:32;;;;;;;21.83;12.67;;;3.10;99.90;;;6.49;56.05;98407.69;4914793;29;20055;-55
2022/11/13 04:22:18;;;;;;;17.57;11.63;;;3.00;99.90;;;6.47;56.29;98405.16;4913164;29;20078;-54
2022/11/13 04:25:06;;;;;;;18.40;10.90;;;3.00;99.90;;;6.48;56.72;98401.56;4910900;29;20056;-54
2022/11/13 04:27:53;;;;;;;26.10;11.80;;;3.10;99.90;;;6.46;56.66;98398.19;4940251;29;20096;-57
2022/11/13 04:30:39;;;;;;;23.50;12.23;;;3.10;99.90;;;6.48;56.82;98400.72;4912625;29;20242;-55
2022/11/13 04:33:26;;;;;;;18.33;9.80;;;3.10;99.90;;;6.50;57.00;98397.00;4936124;29;20051;-56
2022/11/13 04:36:13;;;;;;;19.00;10.30;;;3.20;99.90;;;6.51;56.78;98400.47;4914657;29;20055;-55
2022/11/13 04:38:59;;;;;;;18.47;12.20;;;3.10;99.90;;;6.49;55.85;98395.31;4912518;29;20051;-51
2022/11/13 04:44:51;;;;;;;18.83;11.37;;;3.10;99.90;;;6.54;56.75;98387.03;4913082;29;20066;-54
2022/11/13 04:47:38;;;;;;;17.57;10.83;;;3.20;99.90;;;6.49;56.71;98384.75;4911678;29;20077;-52
2022/11/13 04:50:25;;;;;;;17.73;11.70;;;3.20;99.90;;;6.52;56.38;98377.53;4910065;29;20046;-56
2022/11/13 04:53:11;;;;;;;22.27;12.30;;;3.20;99.90;;;6.50;56.28;98375.84;4938767;29;20051;-53
2022/11/13 04:55:58;;;;;;;20.47;13.20;;;3.10;99.90;;;6.50;56.25;98372.34;4935721;29;20399;-55
2022/11/13 04:58:44;;;;;;;16.10;9.27;;;3.10;99.90;;;6.43;56.04;98364.03;4909219;29;20051;-53
2022/11/13 05:01:31;;;;;;;16.93;9.97;;;3.00;99.90;;;6.41;56.61;98370.41;4925565;29;20381;-52
2022/11/13 05:04:17;;;;;;;10.57;7.03;;;3.00;99.90;;;6.40;56.66;98368.72;4936728;29;20051;-54
2022/11/13 05:07:04;;;;;;;11.37;7.37;;;3.00;99.90;;;6.42;57.13;98369.47;4933852;29;20051;-51
2022/11/13 05:09:51;;;;;;;10.43;6.60;;;3.00;99.90;;;6.39;55.90;98367.03;4912410;29;20055;-55
2022/11/13 05:12:38;;;;;;;8.77;6.37;;;3.00;99.90;;;6.41;56.77;98365.94;4909976;29;20055;-55
2022/11/13 05:15:25;;;;;;;12.03;7.37;;;3.00;99.90;;;6.41;56.66;98365.13;4913140;29;20051;-52
2022/11/13 05:18:11;;;;;;;9.33;7.90;;;3.00;99.90;;;6.42;56.18;98367.66;4911907;29;20062;-55
2022/11/13 05:20:58;;;;;;;12.33;8.47;;;3.00;99.90;;;6.42;57.05;98361.53;4909977;29;20047;-53
2022/11/13 05:23:45;;;;;;;13.73;8.47;;;3.00;99.90;;;6.41;57.13;98358.00;4913212;29;20059;-51
2022/11/13 05:26:31;;;;;;;11.00;8.17;;;3.00;99.90;;;6.38;57.32;98362.69;4911404;29;20047;-53
2022/11/13 05:29:19;;;;;;;9.63;7.23;;;3.00;99.90;;;6.36;57.11;98368.13;4935320;29;20064;-53
2022/11/13 05:32:05;;;;;;;9.17;7.93;;;2.90;99.90;;;6.36;57.20;98357.53;4913378;29;20055;-51
2022/11/13 05:34:52;;;;;;;10.17;7.03;;;2.90;99.90;;;6.39;56.82;98356.44;4907775;29;20055;-52
2022/11/13 05:37:39;;;;;;;9.93;6.50;;;3.00;99.90;;;6.43;56.91;98355.25;4909286;29;20054;-52
2022/11/13 05:40:25;;;;;;;8.93;7.20;;;3.00;99.90;;;6.45;56.84;98351.53;4908910;29;20047;-54
2022/11/13 05:43:12;;;;;;;8.97;6.87;;;3.10;99.90;;;6.48;56.81;98355.75;4911620;29;20245;-52
2022/11/13 05:46:24;;;;;;;9.40;7.30;;;3.10;99.90;;;6.48;57.17;98350.47;4909698;29;20222;-53
2022/11/13 05:49:10;;;;;;;11.00;8.27;;;3.10;99.90;;;6.55;57.32;98343.72;4923985;29;20055;-52
2022/11/13 05:51:57;;;;;;;13.03;8.43;;;3.20;99.90;;;6.58;56.79;98343.50;4935388;29;20054;-52
2022/11/13 05:54:44;;;;;;;13.53;8.67;;;3.20;99.90;;;6.59;57.34;98334.59;4907797;29;20051;-51
2022/11/13 05:57:31;;;;;;;15.70;7.73;;;3.20;99.90;;;6.59;57.13;98344.31;4912134;29;20052;-52
2022/11/13 06:00:18;;;;;;;41.43;10.57;;;3.20;99.90;;;6.55;57.36;98338.44;4935580;29;20254;-54
2022/11/13 06:03:05;;;;;;;17.10;8.13;;;3.10;99.90;;;6.53;57.66;98345.63;4907926;29;20070;-54
2022/11/13 06:05:51;;;;;;;20.67;8.67;;;3.10;99.90;;;6.54;56.70;98328.00;4911202;29;20067;-54
2022/11/13 06:08:38;;;;;;;14.30;8.70;;;3.10;99.90;;;6.53;57.22;98326.28;4907952;29;20054;-53
2022/11/13 06:11:27;;;;;;;13.60;7.40;;;3.10;99.90;;;6.51;57.48;98326.41;4937929;29;20055;-53
2022/11/13 06:14:14;;;;;;;16.00;9.10;;;3.10;99.90;;;6.49;57.33;98325.69;4909838;29;20589;-51
2022/11/13 06:17:01;;;;;;;18.60;8.20;;;3.00;99.90;;;6.47;56.71;98332.91;4908340;29;20050;-56
2022/11/13 06:19:47;;;;;;;12.80;8.60;;;3.00;99.90;;;6.43;57.91;98331.44;4911920;29;20047;-56
2022/11/13 06:22:33;;;;;;;20.57;8.93;;;3.00;99.90;;;6.40;57.91;98329.06;4910140;29;20062;-55
2022/11/13 06:25:20;;;;;;;20.20;8.90;;;2.90;99.90;;;6.40;57.18;98327.25;4907631;29;20238;-57
2022/11/13 06:28:07;;;;;;;17.43;7.90;;;3.00;99.90;;;6.41;57.48;98328.91;4912287;29;20239;-56
2022/11/13 06:30:53;;;;;;;14.63;9.60;;;2.90;99.90;;;6.37;57.62;98332.75;4910141;29;20063;-56
2022/11/13 06:33:41;;;;;;;10.93;8.37;;;2.90;99.90;;;6.36;57.64;98327.59;4907702;29;20067;-54
2022/11/13 06:36:33;;;;;;;11.40;8.10;;;2.90;99.90;;;6.31;56.80;98327.94;4911886;29;20050;-54
2022/11/13 06:39:20;;;;;;;10.30;7.60;;;2.90;99.90;;;6.34;57.49;98321.56;4933746;29;20368;-56
2022/11/13 06:42:07;;;;;;;9.87;6.97;;;2.90;99.90;;;6.41;57.72;98323.63;4907962;29;20062;-55
2022/11/13 06:44:53;;;;;;;12.70;7.93;;;3.00;99.90;;;6.50;56.92;98317.63;4910778;29;20288;-54
2022/11/13 06:47:40;;;;;;;12.17;7.93;;;3.20;99.90;;;6.60;57.57;98319.56;4909582;29;20067;-56
2022/11/13 06:50:26;;;;;;;12.30;7.60;;;3.20;99.90;;;6.70;57.65;98308.13;4907812;29;20051;-51
2022/11/13 06:53:14;;;;;;;17.13;9.77;;;3.40;99.90;;;6.79;57.67;98305.75;4911492;29;20054;-55
2022/11/13 06:56:04;;;;;;;14.17;9.63;;;3.50;99.90;;;6.89;57.08;98306.69;4909160;29;20376;-54
2022/11/13 06:58:54;;;;;;;12.70;8.93;;;3.60;99.90;;;6.98;57.61;98307.75;4907143;29;20070;-57
2022/11/13 07:01:40;;;;;;;13.63;7.97;;;3.60;99.90;;;7.00;57.81;98304.03;4911073;29;20063;-59
2022/11/13 07:04:27;;;;;;;12.40;7.83;;;3.60;99.90;;;7.03;57.63;98305.59;4908480;29;20047;-57
2022/11/13 07:07:13;;;;;;;17.93;8.27;;;3.60;99.90;;;7.08;56.80;98306.06;4905196;29;20246;-55
2022/11/13 07:10:00;;;;;;;15.27;8.77;;;3.60;99.90;;;7.13;57.46;98300.41;4908931;29;20050;-57
2022/11/13 07:12:47;;;;;;;16.17;8.93;;;3.70;99.90;;;7.18;57.33;98299.06;4906847;29;20050;-57
2022/11/13 07:15:39;;;;;;;21.10;9.93;;;3.70;99.90;;;7.21;56.97;98290.88;4909858;29;20054;-57
2022/11/13 07:18:26;;;;;;;27.53;9.83;;;3.70;99.90;;;7.23;57.02;98296.03;4908300;29;20055;-56
2022/11/13 07:21:13;;;;;;;26.73;8.40;;;3.80;99.90;;;7.26;57.48;98296.63;4906339;29;20070;-55
2022/11/13 07:24:01;;;;;;;31.33;10.00;;;3.80;99.90;;;7.28;57.73;98297.34;4907442;29;20051;-55
2022/11/13 07:26:47;;;;;;;25.60;9.57;;;3.80;99.90;;;7.30;57.80;98292.75;4906936;29;20070;-56
2022/11/13 07:29:35;;;;;;;17.73;8.80;;;3.80;99.90;;;7.32;57.33;98292.63;4910938;29;20369;-54
2022/11/13 07:32:22;;;;;;;22.50;8.43;;;3.80;99.90;;;7.34;57.50;98289.88;4909358;29;20070;-55
2022/11/13 07:35:09;;;;;;;24.63;9.23;;;3.80;99.90;;;7.36;57.85;98283.47;4906644;29;20051;-57
2022/11/13 07:37:57;;;;;;;20.37;8.93;;;3.90;99.90;;;7.36;57.24;98282.66;4909336;29;20150;-57
2022/11/13 07:40:44;;;;;;;30.43;9.27;;;3.90;99.90;;;7.37;58.19;98279.88;4908046;29;20047;-58
2022/11/13 07:43:31;;;;;;;17.83;9.10;;;3.90;99.90;;;7.39;57.82;98285.06;4906757;29;20047;-57
2022/11/13 07:46:19;;;;;;;16.03;9.00;;;3.90;99.90;;;7.43;58.29;98282.00;4910863;29;20238;-53
2022/11/13 07:49:06;;;;;;;24.67;10.13;;;4.00;99.90;;;7.46;58.01;98270.31;4908650;29;20055;-56
2022/11/13 07:51:52;;;;;;;18.77;9.10;;;4.00;99.90;;;7.50;57.82;98266.44;4910727;29;20067;-56
2022/11/13 07:54:39;;;;;;;19.53;11.00;;;4.10;99.90;;;7.56;57.74;98265.97;4913719;29;20059;-57
2022/11/13 07:57:26;;;;;;;36.50;11.80;;;4.10;99.90;;;7.58;57.44;98264.03;4912341;29;20055;-57
2022/11/13 08:00:13;;;;;;;32.27;12.83;;;4.10;99.90;;;7.56;57.76;98258.00;4910040;29;20051;-55
2022/11/13 08:03:13;;;;;;;21.77;10.00;;;4.10;99.90;;;7.55;57.54;98264.25;4913913;29;20055;-58
2022/11/13 08:06:06;;;;;;;27.73;8.90;;;4.00;99.90;;;7.56;57.62;98257.16;4910440;29;20101;-58
2022/11/13 08:08:53;;;;;;;17.67;8.43;;;4.00;99.90;;;7.52;57.33;98263.66;4909170;29;20063;-58
2022/11/13 08:11:39;;;;;;;23.20;9.27;;;4.00;99.90;;;7.51;57.68;98252.25;4912369;29;20234;-58
2022/11/13 08:14:26;;;;;;;13.87;8.97;;;4.00;99.90;;;7.54;57.68;98245.84;4910573;29;20046;-56
2022/11/13 08:17:13;;;;;;;18.60;9.83;;;4.00;99.90;;;7.63;58.19;98253.88;4909386;29;20254;-57
2022/11/13 08:20:00;;;;;;;31.20;10.40;;;4.10;99.90;;;7.71;57.93;98253.22;4912870;29;20055;-56
2022/11/13 08:22:47;;;;;;;23.93;8.40;;;4.20;99.90;;;7.73;57.67;98253.94;4911392;29;20050;-57
2022/11/13 08:25:35;;;;;;;15.73;8.40;;;4.20;99.90;;;7.68;57.71;98258.81;4908599;29;20361;-55
2022/11/13 08:28:22;;;;;;;24.53;10.80;;;4.10;99.90;;;7.72;57.93;98259.38;4911774;29;20050;-56
2022/11/13 08:31:12;;;;;;;31.60;8.93;;;4.20;99.90;;;7.73;57.64;98245.97;4910951;29;20110;-56
2022/11/13 08:33:59;;;;;;;19.87;8.37;;;4.20;99.90;;;7.72;57.77;98243.47;4908308;29;20239;-56
2022/11/13 08:36:47;;;;;;;29.23;9.43;;;4.10;99.90;;;7.65;57.37;98240.50;4912221;29;20058;-57
2022/11/13 08:39:34;;;;;;;21.73;9.13;;;4.00;99.90;;;7.59;57.66;98241.84;4910558;29;20046;-56
2022/11/13 08:42:21;;;;;;;29.63;9.97;;;3.90;99.90;;;7.61;57.43;98236.41;4913747;29;20253;-55
2022/11/13 08:45:08;;;;;;;18.33;10.33;;;4.00;99.90;;;7.57;57.10;98222.56;4911568;29;20055;-58
2022/11/13 08:48:03;;;;;;;16.43;11.67;;;3.90;99.90;;;7.66;57.62;98226.28;4909462;29;20070;-55
2022/11/13 08:50:54;;;;;;;15.02;8.82;;;4.10;99.90;;;7.70;58.05;98227.69;4913658;29;20050;-54
2022/11/13 08:53:41;;;;;;;13.67;9.03;;;4.10;99.90;;;7.68;58.07;98219.03;4910838;29;20055;-54
2022/11/13 08:56:27;;;;;;;10.00;7.93;;;4.10;99.90;;;7.55;57.84;98208.63;4909246;29;20055;-54
2022/11/13 08:59:14;;;;;;;27.87;17.80;;;3.90;99.90;;;7.53;57.41;98207.91;4912658;29;20051;-56
2022/11/13 09:02:01;;;;;;;19.13;12.63;;;3.90;99.90;;;7.61;57.83;98209.91;4910106;29;20254;-57
2022/11/13 09:04:47;;;;;;;13.87;9.80;;;4.10;99.90;;;7.72;57.55;98211.69;4908418;29;20047;-57
2022/11/13 09:07:34;;;;;;;13.63;10.27;;;4.20;99.90;;;7.81;58.09;98211.75;4912542;29;20051;-56
2022/11/13 09:10:20;;;;;;;12.97;8.37;;;4.30;99.90;;;7.87;58.31;98218.31;4911244;29;20051;-56
2022/11/13 09:13:10;;;;;;;11.20;8.03;;;4.40;99.90;;;7.78;57.50;98204.03;4909774;29;20051;-59
2022/11/13 09:15:59;;;;;;;12.53;8.87;;;4.30;99.90;;;7.80;58.40;98215.34;4913643;29;20055;-58
2022/11/13 09:18:49;;;;;;;22.33;14.13;;;4.40;99.90;;;7.82;57.84;98205.44;4910393;29;20329;-58
2022/11/13 09:21:36;;;;;;;13.97;10.20;;;4.40;99.90;;;7.83;58.17;98200.97;4908358;29;20064;-56
2022/11/13 09:24:22;;;;;;;11.33;8.37;;;4.30;99.90;;;7.78;58.25;98201.38;4910025;29;20232;-52
2022/11/13 09:27:09;;;;;;;9.90;8.10;;;4.20;99.90;;;7.75;57.91;98206.09;4909341;29;20070;-55
2022/11/13 09:29:56;;;;;;;11.57;7.67;;;4.20;99.90;;;7.71;57.30;98207.34;4912704;29;20396;-52
2022/11/13 09:32:42;;;;;;;12.63;7.93;;;4.10;99.90;;;7.73;57.75;98208.88;4906272;29;20234;-52
2022/11/13 09:35:34;;;;;;;17.10;11.30;;;4.20;99.90;;;7.75;57.75;98193.69;4902788;29;20107;-52
2022/11/13 09:38:21;;;;;;;13.87;9.77;;;4.30;99.90;;;7.80;57.80;98202.09;4907720;29;20068;-52
2022/11/13 09:41:21;;;;;;;13.93;10.67;;;4.40;99.90;;;7.85;58.40;98207.84;4909569;29;20266;-53
2022/11/13 09:45:19;;;;;;;13.37;9.53;;;4.50;99.90;;;7.88;58.09;98206.75;4908522;29;20064;-53
2022/11/13 09:48:39;;;;;;;11.87;8.90;;;4.60;99.90;;;8.01;58.00;98204.72;4911435;29;20047;-53
2022/11/13 09:51:30;;;;;;;12.40;9.47;;;4.80;99.90;;;8.05;57.84;98187.59;4908341;29;20067;-50
2022/11/13 09:54:17;;;;;;;10.57;9.00;;;4.80;99.90;;;8.05;58.19;98198.19;4910085;29;20054;-53
2022/11/13 09:57:19;;;;;;;12.07;8.43;;;4.90;99.90;;;8.10;58.07;98200.44;4909880;29;20050;-51
2022/11/13 10:00:19;;;;;;;10.57;8.20;;;4.90;99.90;;;8.18;58.45;98191.81;4911634;29;20369;-52
2022/11/13 10:03:43;;;;;;;12.63;8.53;;;5.00;99.90;;;8.22;58.58;98190.56;4909815;29;20246;-51
2022/11/13 10:07:22;;;;;;;11.13;8.30;;;5.10;99.90;;;8.29;58.29;98184.59;4910428;29;20051;-54
2022/11/13 10:10:55;;;;;;;10.90;7.83;;;5.20;99.90;;;8.32;58.23;98183.53;4906794;29;20051;-55
2022/11/13 10:13:52;;;;;;;10.43;8.93;;;5.20;99.90;;;8.36;58.50;98184.09;4908968;29;20070;-55
2022/11/13 10:16:56;;;;;;;12.37;8.50;;;5.30;99.90;;;8.41;58.62;98182.75;4911637;29;20051;-55
2022/11/13 10:20:29;;;;;;;11.13;8.43;;;5.30;99.90;;;8.45;58.23;98181.50;4909325;29;20274;-54
2022/11/13 10:23:30;;;;;;;11.17;7.90;;;5.40;99.90;;;8.56;58.40;98177.06;4888946;29;20067;-56
2022/11/13 10:26:26;;;;;;;12.30;9.13;;;5.50;99.90;;;8.63;58.42;98183.53;4908045;29;20055;-53
2022/11/13 10:29:19;;;;;;;11.77;8.60;;;5.50;99.90;;;8.71;58.14;98172.22;4912504;29;20054;-53
2022/11/13 10:32:31;;;;;;;10.80;7.60;;;5.60;99.90;;;8.74;58.43;98175.41;4909299;29;20051;-56
2022/11/13 10:35:31;;;;;;;9.47;6.97;;;5.70;99.90;;;8.83;58.01;98171.13;4912047;29;20051;-52
2022/11/13 10:38:51;;;;;;;10.27;7.50;;;5.70;99.90;;;8.83;57.88;98173.78;4908327;29;20051;-55
2022/11/13 10:41:51;;;;;;;10.83;8.00;;;5.80;99.90;;;8.84;58.17;98167.47;4910507;29;20055;-54
2022/11/13 10:44:39;;;;;;;9.80;8.77;;;5.80;99.90;;;8.91;58.13;98165.94;4906255;29;20055;-56
2022/11/13 10:47:31;;;;;;;11.77;8.93;;;5.80;99.90;;;8.98;58.15;98158.28;4912309;29;20047;-55
2022/11/13 10:50:39;;;;;;;10.53;7.57;;;5.90;99.90;;;9.05;58.00;98152.28;4908548;29;20070;-54
2022/11/13 10:53:42;;;;;;;13.87;8.80;;;5.90;99.90;;;9.11;58.14;98150.88;4906357;29;20070;-55
2022/11/13 10:56:32;;;;;;;10.47;8.27;;;6.00;99.90;;;9.18;57.81;98137.88;4909754;29;20376;-53
2022/11/13 10:59:19;;;;;;;10.27;7.63;;;6.10;99.90;;;9.25;57.93;98131.03;4907172;29;20055;-53
2022/11/13 11:02:20;;;;;;;9.30;7.43;;;6.10;99.90;;;9.30;58.06;98138.56;4910972;29;20369;-55
2022/11/13 11:05:22;;;;;;;11.53;8.07;;;6.20;99.90;;;9.36;57.78;98130.84;4921125;29;20047;-57
2022/11/13 11:08:09;;;;;;;14.10;8.57;;;6.30;99.90;;;9.42;57.55;98117.03;4907055;29;20066;-59
2022/11/13 11:14:32;;;;;;;10.40;7.70;;;6.40;99.90;;;9.51;57.59;98096.72;4906573;29;20405;-58
2022/11/13 11:17:28;;;;;;;12.20;8.37;;;6.40;99.90;;;9.55;57.86;98097.25;4909412;29;20055;-58
2022/11/13 11:20:52;;;;;;;9.27;7.67;;;6.50;99.90;;;9.62;58.12;98085.09;4906745;29;20054;-60
2022/11/13 11:23:56;;;;;;;11.50;8.70;;;6.60;99.90;;;9.73;57.79;98079.59;4908579;29;20254;-60
2022/11/13 11:27:01;;;;;;;12.43;7.43;;;6.70;99.90;;;9.80;58.05;98070.03;4912500;29;20066;-59
2022/11/13 11:30:03;;;;;;;9.57;7.87;;;6.80;99.90;;;9.77;57.67;98065.03;4915529;29;20361;-59
2022/11/13 11:33:11;;;;;;;9.97;7.50;;;6.80;99.90;;;9.59;58.01;98056.94;4913117;29;20050;-60
2022/11/13 11:36:10;;;;;;;11.03;8.60;;;6.80;99.90;;;9.79;57.91;98054.22;4915390;29;20050;-59
2022/11/13 11:39:28;;;;;;;10.10;8.73;;;6.80;99.90;;;9.78;58.57;98049.91;4913992;29;20054;-58
2022/11/13 11:42:50;;;;;;;11.57;8.83;;;6.90;99.90;;;9.96;58.36;98048.13;4916200;29;20055;-60
2022/11/13 11:45:43;;;;;;;12.83;9.23;;;7.00;99.90;;;10.09;58.08;98045.13;4916934;29;20066;-59
2022/11/13 11:48:31;;;;;;;10.80;8.50;;;7.10;99.90;;;10.09;58.35;98039.81;4915097;29;20047;-60
2022/11/13 11:51:47;;;;;;;11.87;8.17;;;7.20;99.90;;;10.03;58.63;98027.94;4912228;29;20055;-60
2022/11/13 11:54:46;;;;;;;10.43;8.10;;;7.30;99.90;;;10.23;58.33;98028.66;4915040;29;20055;-60
2022/11/13 11:57:48;;;;;;;11.33;8.40;;;7.30;99.90;;;10.35;58.15;98017.84;4913166;29;20062;-57
2022/11/13 12:00:42;;;;;;;10.03;8.00;;;7.50;99.90;;;10.49;58.14;98016.47;4915784;29;20051;-56
2022/11/13 12:03:35;;;;;;;11.18;8.25;;;7.60;99.90;;;10.64;57.86;97999.84;4913227;29;20225;-53
2022/11/13 12:07:22;;;;;;;10.93;8.37;;;7.80;99.90;;;10.73;58.19;97987.41;4917527;29;20051;-57
2022/11/13 12:10:27;;;;;;;11.30;7.70;;;7.90;99.90;;;10.80;57.82;97993.81;4911650;29;20047;-56
2022/11/13 12:13:35;;;;;;;11.07;8.27;;;8.00;99.90;;;10.92;58.09;97999.72;4915708;29;20060;-57
2022/11/13 12:16:47;;;;;;;10.80;8.57;;;8.10;99.90;;;11.03;58.14;97982.63;4911897;29;20050;-56